createdAt,value
2019-04-28T00:01:33.641Z,101170.19
2019-04-28T00:04:03.446Z,101172.92
2019-04-28T00:06:32.795Z,101174.84
2019-04-28T00:09:02.261Z,101181.67
2019-04-28T00:11:31.815Z,101188.36
2019-04-28T00:14:01.907Z,101186.16
2019-04-28T00:16:31.298Z,101183.00
2019-04-28T00:19:01.077Z,101181.36
2019-04-28T00:21:51.695Z,101177.69
2019-04-28T00:24:36.150Z,101177.51
2019-04-28T00:27:07.531Z,101174.36
2019-04-28T00:29:41.314Z,101181.01
2019-04-28T00:32:08.072Z,101191.69
2019-04-28T00:34:37.251Z,101190.92
2019-04-28T00:37:34.746Z,101198.45
2019-04-28T00:40:04.590Z,101195.40
2019-04-28T00:42:34.372Z,101202.22
2019-04-28T00:45:03.775Z,101199.14
2019-04-28T00:47:33.421Z,101200.05
2019-04-28T00:50:02.598Z,101199.14
2019-04-28T00:52:32.095Z,101201.31
2019-04-28T00:55:01.288Z,101205.76
2019-04-28T00:57:30.948Z,101205.72
2019-04-28T01:00:02.378Z,101205.20
2019-04-28T01:02:42.402Z,101204.22
2019-04-28T01:05:11.697Z,101200.52
2019-04-28T01:07:41.456Z,101202.72
2019-04-28T01:10:11.454Z,101200.23
2019-04-28T01:12:41.258Z,101199.36
2019-04-28T01:15:15.024Z,101200.65
2019-04-28T01:18:15.362Z,101201.59
2019-04-28T01:20:44.481Z,101193.33
2019-04-28T01:23:13.532Z,101203.97
2019-04-28T01:25:42.635Z,101200.89
2019-04-28T01:28:11.827Z,101205.30
2019-04-28T01:30:59.984Z,101201.20
2019-04-28T01:33:37.702Z,101202.12
2019-04-28T01:36:10.374Z,101200.05
2019-04-28T01:38:40.154Z,101208.03
2019-04-28T01:41:10.702Z,101202.81
2019-04-28T01:43:41.666Z,101212.61
2019-04-28T01:46:10.762Z,101218.94
2019-04-28T01:48:40.245Z,101214.23
2019-04-28T01:51:09.574Z,101220.08
2019-04-28T01:53:39.561Z,101220.08
2019-04-28T01:56:10.577Z,101222.67
2019-04-28T01:58:40.407Z,101226.98
2019-04-28T02:01:13.322Z,101229.16
2019-04-28T02:03:42.201Z,101233.15
2019-04-28T02:06:11.601Z,101231.36
2019-04-28T02:08:40.731Z,101226.81
2019-04-28T02:11:10.238Z,101233.98
2019-04-28T02:13:39.903Z,101230.97
2019-04-28T02:16:09.879Z,101230.09
2019-04-28T02:18:39.900Z,101229.64
2019-04-28T02:21:29.766Z,101231.88
2019-04-28T02:24:19.376Z,101234.55
2019-04-28T02:26:50.401Z,101242.20
2019-04-28T02:29:20.197Z,101245.77
2019-04-28T02:31:51.108Z,101243.95
2019-04-28T02:34:21.186Z,101232.44
2019-04-28T02:36:54.003Z,101232.86
2019-04-28T02:39:22.195Z,101232.30
2019-04-28T02:41:51.514Z,101236.72
2019-04-28T02:44:23.569Z,101236.75
2019-04-28T02:46:51.858Z,101236.87
2019-04-28T02:49:26.744Z,101236.87
2019-04-28T02:52:05.372Z,101244.89
2019-04-28T02:54:34.710Z,101249.27
2019-04-28T02:57:03.933Z,101252.80
2019-04-28T02:59:33.052Z,101255.98
2019-04-28T03:02:02.578Z,101261.46
2019-04-28T03:04:32.102Z,101260.22
2019-04-28T03:07:01.607Z,101262.37
2019-04-28T03:09:33.143Z,101263.21
2019-04-28T03:12:03.609Z,101262.73
2019-04-28T03:14:32.589Z,101264.48
2019-04-28T03:17:01.584Z,101266.32
2019-04-28T03:19:34.021Z,101269.95
2019-04-28T03:22:01.621Z,101269.95
2019-04-28T03:24:31.832Z,101269.38
2019-04-28T03:27:21.632Z,101263.96
2019-04-28T03:30:01.106Z,101264.05
2019-04-28T03:32:52.116Z,101273.36
2019-04-28T03:35:12.853Z,101273.84
2019-04-28T03:37:41.497Z,101266.36
2019-04-28T03:40:11.667Z,101268.66
2019-04-28T03:42:41.219Z,101271.73
2019-04-28T03:45:17.865Z,101274.84
2019-04-28T03:47:46.960Z,101275.75
2019-04-28T03:50:15.964Z,101275.79
2019-04-28T03:52:45.090Z,101277.57
2019-04-28T03:55:15.408Z,101279.41
2019-04-28T03:57:44.786Z,101276.23
2019-04-28T04:00:13.804Z,101284.64
2019-04-28T04:02:42.723Z,101283.95
2019-04-28T04:05:12.330Z,101284.86
2019-04-28T04:07:43.258Z,101288.84
2019-04-28T04:10:31.767Z,101291.59
2019-04-28T04:13:06.330Z,101296.58
2019-04-28T04:15:55.087Z,101294.31
2019-04-28T04:18:30.868Z,101302.70
2019-04-28T04:21:00.753Z,101296.91
2019-04-28T04:23:31.120Z,101298.57
2019-04-28T04:26:01.630Z,101295.91
2019-04-28T04:28:31.196Z,101299.42
2019-04-28T04:31:02.948Z,101300.30
2019-04-28T04:33:31.316Z,101302.14
2019-04-28T04:36:01.683Z,101297.36
2019-04-28T04:38:31.701Z,101293.70
2019-04-28T04:41:03.122Z,101300.80
2019-04-28T04:43:32.581Z,101296.81
2019-04-28T04:46:21.897Z,101295.91
2019-04-28T04:48:50.801Z,101294.64
2019-04-28T04:51:21.223Z,101306.22
2019-04-28T04:53:51.758Z,101312.86
2019-04-28T04:56:21.668Z,101310.20
2019-04-28T04:58:50.912Z,101313.73
2019-04-28T05:01:35.379Z,101314.67
2019-04-28T05:04:27.496Z,101317.30
2019-04-28T05:06:56.781Z,101325.73
2019-04-28T05:09:25.950Z,101324.58
2019-04-28T05:11:55.936Z,101326.72
2019-04-28T05:14:25.249Z,101329.81
2019-04-28T05:16:54.343Z,101340.80
2019-04-28T05:19:24.823Z,101336.79
2019-04-28T05:21:54.603Z,101342.95
2019-04-28T05:24:34.558Z,101343.34
2019-04-28T05:27:04.862Z,101353.98
2019-04-28T05:29:34.119Z,101352.65
2019-04-28T05:32:04.004Z,101362.44
2019-04-28T05:34:33.650Z,101358.99
2019-04-28T05:37:02.973Z,101369.14
2019-04-28T05:39:31.963Z,101367.76
2019-04-28T05:42:01.183Z,101369.55
2019-04-28T05:44:32.156Z,101368.21
2019-04-28T05:47:01.650Z,101368.23
2019-04-28T05:49:51.406Z,101369.94
2019-04-28T05:52:58.110Z,101379.66
2019-04-28T05:55:46.505Z,101380.17
2019-04-28T05:58:20.879Z,101379.75
2019-04-28T06:01:03.901Z,101387.22
2019-04-28T06:03:33.396Z,101385.13
2019-04-28T06:06:04.350Z,101386.45
2019-04-28T06:08:44.628Z,101383.29
2019-04-28T06:11:32.121Z,101385.78
2019-04-28T06:14:01.791Z,101389.70
2019-04-28T06:16:31.095Z,101393.19
2019-04-28T06:19:03.186Z,101396.33
2019-04-28T06:21:32.710Z,101398.50
2019-04-28T06:24:02.136Z,101399.41
2019-04-28T06:26:33.808Z,101401.25
2019-04-28T06:29:02.897Z,101405.30
2019-04-28T06:31:33.179Z,101409.28
2019-04-28T06:34:05.266Z,101410.10
2019-04-28T06:36:40.663Z,101411.38
2019-04-28T06:39:07.945Z,101418.02
2019-04-28T06:41:37.474Z,101418.91
2019-04-28T06:44:06.921Z,101421.47
2019-04-28T06:46:36.176Z,101422.78
2019-04-28T06:49:05.471Z,101429.42
2019-04-28T06:51:34.840Z,101427.61
2019-04-28T06:54:04.224Z,101441.73
2019-04-28T06:56:33.404Z,101441.81
2019-04-28T06:59:03.136Z,101441.48
2019-04-28T07:01:33.654Z,101439.33
2019-04-28T07:04:06.553Z,101441.88
2019-04-28T07:06:35.435Z,101444.91
2019-04-28T07:09:07.654Z,101443.06
2019-04-28T07:11:36.922Z,101440.41
2019-04-28T07:14:06.632Z,101433.75
2019-04-28T07:16:35.869Z,101430.92
2019-04-28T07:19:05.712Z,101435.28
2019-04-28T07:21:43.416Z,101439.16
2019-04-28T07:24:12.823Z,101441.24
2019-04-28T07:26:43.076Z,101447.84
2019-04-28T07:29:13.977Z,101449.17
2019-04-28T07:31:49.361Z,101452.22
2019-04-28T07:34:19.126Z,101465.13
2019-04-28T07:36:49.092Z,101475.86
2019-04-28T07:39:20.822Z,101476.42
2019-04-28T07:41:52.058Z,101485.91
2019-04-28T07:44:24.331Z,101486.87
2019-04-28T07:46:53.878Z,101498.33
2019-04-28T07:49:24.291Z,101503.84
2019-04-28T07:52:12.446Z,101507.41
2019-04-28T07:54:44.560Z,101506.89
2019-04-28T07:57:13.996Z,101504.52
2019-04-28T07:59:43.094Z,101502.69
2019-04-28T08:02:12.500Z,101501.67
2019-04-28T08:04:41.654Z,101502.38
2019-04-28T08:07:11.302Z,101504.76
2019-04-28T08:09:41.838Z,101498.23
2019-04-28T08:12:11.773Z,101499.90
2019-04-28T08:14:41.721Z,101504.31
2019-04-28T08:17:11.503Z,101503.74
2019-04-28T08:19:42.250Z,101505.41
2019-04-28T08:22:12.031Z,101515.66
2019-04-28T08:24:41.290Z,101516.55
2019-04-28T08:27:11.095Z,101514.03
2019-04-28T08:29:40.649Z,101525.19
2019-04-28T08:32:28.027Z,101535.92
2019-04-28T08:34:57.668Z,101542.16
2019-04-28T08:37:27.444Z,101551.64
2019-04-28T08:39:57.373Z,101561.89
2019-04-28T08:42:26.447Z,101570.41
2019-04-28T08:44:56.073Z,101575.33
2019-04-28T08:47:25.575Z,101579.55
2019-04-28T08:49:55.463Z,101579.88
2019-04-28T08:52:27.322Z,101581.80
2019-04-28T08:54:56.369Z,101579.09
2019-04-28T08:57:28.058Z,101575.95
2019-04-28T08:59:57.183Z,101577.62
2019-04-28T09:02:26.338Z,101582.52
2019-04-28T09:04:56.101Z,101586.37
2019-04-28T09:07:25.617Z,101589.64
2019-04-28T09:09:55.034Z,101609.98
2019-04-28T09:12:24.833Z,101610.80
2019-04-28T09:14:56.002Z,101618.00
2019-04-28T09:17:25.592Z,101623.45
2019-04-28T09:19:55.225Z,101632.84
2019-04-28T09:22:24.382Z,101631.00
2019-04-28T09:24:54.509Z,101632.76
2019-04-28T09:27:23.723Z,101634.52
2019-04-28T09:29:52.977Z,101628.72
2019-04-28T09:32:23.053Z,101629.84
2019-04-28T09:34:53.493Z,101630.17
2019-04-28T09:37:26.625Z,101627.83
2019-04-28T09:40:05.705Z,101628.69
2019-04-28T09:42:57.675Z,101633.66
2019-04-28T09:45:33.850Z,101627.83
2019-04-28T09:48:06.670Z,101638.41
2019-04-28T09:50:41.422Z,101635.81
2019-04-28T09:53:11.309Z,101644.20
2019-04-28T09:55:40.804Z,101646.81
2019-04-28T09:58:10.488Z,101648.20
2019-04-28T10:00:41.196Z,101649.93
2019-04-28T10:03:10.978Z,101652.51
2019-04-28T10:05:40.558Z,101661.45
2019-04-28T10:08:10.717Z,101665.00
2019-04-28T10:10:40.921Z,101662.67
2019-04-28T10:13:10.641Z,101659.11
2019-04-28T10:15:41.875Z,101668.33
2019-04-28T10:18:11.427Z,101665.94
2019-04-28T10:20:41.932Z,101667.18
2019-04-28T10:23:11.718Z,101670.27
2019-04-28T10:25:41.726Z,101677.80
2019-04-28T10:28:12.361Z,101675.70
2019-04-28T10:30:41.781Z,101678.86
2019-04-28T10:33:13.556Z,101680.30
2019-04-28T10:35:44.859Z,101676.41
2019-04-28T10:38:14.719Z,101683.89
2019-04-28T10:40:50.478Z,101684.89
2019-04-28T10:43:20.870Z,101688.98
2019-04-28T10:45:53.139Z,101691.65
2019-04-28T10:48:28.402Z,101693.45
2019-04-28T10:51:01.361Z,101684.09
2019-04-28T10:53:30.796Z,101689.39
2019-04-28T10:56:00.583Z,101696.07
2019-04-28T10:58:30.266Z,101695.23
2019-04-28T11:01:00.080Z,101702.77
2019-04-28T11:03:29.858Z,101706.81
2019-04-28T11:05:59.597Z,101705.00
2019-04-28T11:08:48.225Z,101713.97
2019-04-28T11:11:27.612Z,101714.86
2019-04-28T11:13:56.085Z,101727.08
2019-04-28T11:16:32.743Z,101726.25
2019-04-28T11:19:02.307Z,101732.78
2019-04-28T11:21:32.112Z,101733.56
2019-04-28T11:24:01.838Z,101735.56
2019-04-28T11:26:31.959Z,101736.19
2019-04-28T11:29:01.626Z,101738.63
2019-04-28T11:31:31.465Z,101726.34
2019-04-28T11:34:28.926Z,101730.42
2019-04-28T11:36:58.928Z,101726.47
2019-04-28T11:39:32.593Z,101729.22
2019-04-28T11:42:02.368Z,101726.21
2019-04-28T11:44:32.786Z,101730.19
2019-04-28T11:47:02.423Z,101735.73
2019-04-28T11:49:32.141Z,101733.14
2019-04-28T11:52:02.068Z,101734.16
2019-04-28T11:54:34.490Z,101725.41
2019-04-28T11:57:04.560Z,101728.63
2019-04-28T11:59:34.832Z,101728.13
2019-04-28T12:02:04.917Z,101735.59
2019-04-28T12:04:34.965Z,101732.75
2019-04-28T12:07:04.164Z,101737.50
2019-04-28T12:10:10.830Z,101746.84
2019-04-28T12:12:57.511Z,101742.34
2019-04-28T12:15:48.913Z,101745.70
2019-04-28T12:18:43.391Z,101741.69
2019-04-28T12:21:13.367Z,101745.05
2019-04-28T12:23:42.998Z,101741.06
2019-04-28T12:26:12.873Z,101740.69
2019-04-28T12:28:42.356Z,101736.80
2019-04-28T12:31:12.068Z,101741.36
2019-04-28T12:33:41.773Z,101739.63
2019-04-28T12:36:11.639Z,101739.89
2019-04-28T12:38:45.172Z,101748.89
2019-04-28T12:41:14.862Z,101752.08
2019-04-28T12:43:47.054Z,101752.18
2019-04-28T12:46:16.717Z,101760.14
2019-04-28T12:48:48.649Z,101757.59
2019-04-28T12:51:19.161Z,101757.06
2019-04-28T12:53:49.852Z,101757.23
2019-04-28T12:56:19.673Z,101760.56
2019-04-28T12:58:50.919Z,101754.94
2019-04-28T13:01:33.825Z,101762.20
2019-04-28T13:04:30.712Z,101758.85
2019-04-28T13:07:08.880Z,101765.10
2019-04-28T13:09:38.720Z,101770.60
2019-04-28T13:12:10.340Z,101777.80
2019-04-28T13:14:40.059Z,101777.89
2019-04-28T13:17:09.610Z,101779.68
2019-04-28T13:19:39.405Z,101785.28
2019-04-28T13:22:09.231Z,101786.26
2019-04-28T13:24:39.140Z,101785.05
2019-04-28T13:27:10.345Z,101788.14
2019-04-28T13:29:40.426Z,101790.48
2019-04-28T13:32:10.472Z,101794.06
2019-04-28T13:34:43.365Z,101789.05
2019-04-28T13:37:12.360Z,101793.48
2019-04-28T13:40:02.529Z,101793.88
2019-04-28T13:42:31.789Z,101797.88
2019-04-28T13:45:09.097Z,101792.11
2019-04-28T13:47:40.922Z,101798.75
2019-04-28T13:50:21.906Z,101797.03
2019-04-28T13:52:51.505Z,101800.67
2019-04-28T13:55:54.392Z,101803.12
2019-04-28T13:58:29.545Z,101802.30
2019-04-28T14:01:26.846Z,101806.80
2019-04-28T14:04:15.614Z,101808.59
2019-04-28T14:06:48.790Z,101812.20
2019-04-28T14:09:22.811Z,101805.95
2019-04-28T14:11:54.495Z,101808.94
2019-04-28T14:14:24.382Z,101805.63
2019-04-28T14:16:54.179Z,101811.42
2019-04-28T14:19:24.343Z,101813.59
2019-04-28T14:21:54.366Z,101814.02
2019-04-28T14:24:27.044Z,101810.83
2019-04-28T14:27:00.901Z,101811.70
2019-04-28T14:29:30.281Z,101782.30
2019-04-28T14:31:59.825Z,101813.86
2019-04-28T14:34:29.676Z,101816.17
2019-04-28T14:37:00.684Z,101820.34
2019-04-28T14:39:30.851Z,101819.73
2019-04-28T14:42:02.507Z,101816.84
2019-04-28T14:44:32.945Z,101814.33
2019-04-28T14:47:02.292Z,101817.61
2019-04-28T14:49:32.033Z,101814.70
2019-04-28T14:52:04.210Z,101814.70
2019-04-28T14:54:33.817Z,101821.47
2019-04-28T14:57:03.604Z,101828.16
2019-04-28T14:59:33.305Z,101828.08
2019-04-28T15:02:27.792Z,101829.57
2019-04-28T15:05:14.796Z,101824.53
2019-04-28T15:07:57.423Z,101826.22
2019-04-28T15:10:45.274Z,101824.22
2019-04-28T15:13:15.280Z,101831.48
2019-04-28T15:15:44.938Z,101825.27
2019-04-28T15:18:14.202Z,101829.39
2019-04-28T15:20:44.150Z,101830.27
2019-04-28T15:23:13.937Z,101832.03
2019-04-28T15:25:43.539Z,101827.52
2019-04-28T15:28:13.147Z,101828.66
2019-04-28T15:30:42.712Z,101836.50
2019-04-28T15:33:12.799Z,101834.98
2019-04-28T15:35:41.983Z,101837.26
2019-04-28T15:38:11.720Z,101841.08
2019-04-28T15:40:45.303Z,101842.55
2019-04-28T15:43:14.576Z,101839.16
2019-04-28T15:45:49.269Z,101841.53
2019-04-28T15:48:18.458Z,101841.63
2019-04-28T15:50:59.845Z,101844.36
2019-04-28T15:53:30.217Z,101844.91
2019-04-28T15:56:19.325Z,101849.02
2019-04-28T15:58:58.327Z,101852.23
2019-04-28T16:01:27.728Z,101850.34
2019-04-28T16:03:57.022Z,101851.45
2019-04-28T16:06:27.020Z,101852.88
2019-04-28T16:08:56.871Z,101855.21
2019-04-28T16:11:28.964Z,101856.16
2019-04-28T16:13:57.672Z,101730.84
2019-04-28T16:16:27.445Z,101856.73
2019-04-28T16:18:56.917Z,101854.55
2019-04-28T16:21:26.554Z,101856.94
2019-04-28T16:23:58.920Z,101855.81
2019-04-28T16:26:28.834Z,101856.75
2019-04-28T16:29:01.673Z,101865.62
2019-04-28T16:31:31.431Z,101856.30
2019-04-28T16:34:01.225Z,101860.75
2019-04-28T16:36:30.743Z,101870.08
2019-04-28T16:39:00.178Z,101867.84
2019-04-28T16:41:30.106Z,101870.99
2019-04-28T16:44:00.738Z,101876.75
2019-04-28T16:46:30.654Z,101876.84
2019-04-28T16:49:00.386Z,101875.91
2019-04-28T16:51:29.856Z,101875.59
2019-04-28T16:53:59.023Z,101881.83
2019-04-28T16:57:02.241Z,101877.04
2019-04-28T16:59:50.939Z,101882.38
2019-04-28T17:02:35.323Z,101877.52
2019-04-28T17:05:05.171Z,101879.81
2019-04-28T17:07:35.096Z,101878.53
2019-04-28T17:10:04.890Z,101880.33
2019-04-28T17:12:36.879Z,101884.41
2019-04-28T17:15:07.864Z,101892.45
2019-04-28T17:17:37.152Z,101895.23
2019-04-28T17:20:07.136Z,101895.80
2019-04-28T17:22:36.567Z,101894.48
2019-04-28T17:25:06.624Z,101890.03
2019-04-28T17:27:36.069Z,101896.70
2019-04-28T17:30:07.443Z,101895.84
2019-04-28T17:32:36.751Z,101899.84
2019-04-28T17:35:06.712Z,101903.41
2019-04-28T17:37:47.775Z,101906.91
2019-04-28T17:40:17.632Z,101910.03
2019-04-28T17:42:47.080Z,101920.72
2019-04-28T17:45:18.239Z,101919.03
2019-04-28T17:47:47.932Z,101927.06
2019-04-28T17:50:22.345Z,101922.66
2019-04-28T17:52:56.770Z,101926.26
2019-04-28T17:55:28.628Z,101927.98
2019-04-28T17:57:58.351Z,101922.30
2019-04-28T18:00:50.719Z,101919.30
2019-04-28T18:03:39.350Z,101922.86
2019-04-28T18:06:20.154Z,101934.00
2019-04-28T18:08:49.745Z,101934.45
2019-04-28T18:11:19.153Z,101942.89
2019-04-28T18:13:49.782Z,101936.73
2019-04-28T18:16:35.640Z,101931.91
2019-04-28T18:19:11.731Z,101931.45
2019-04-28T18:21:40.876Z,101931.93
2019-04-28T18:24:17.779Z,101939.98
2019-04-28T18:26:47.004Z,101944.49
2019-04-28T18:29:16.718Z,101947.72
2019-04-28T18:35:19.790Z,101955.91
2019-04-28T18:38:09.681Z,101961.78
2019-04-28T18:41:04.038Z,101961.39
2019-04-28T18:43:55.711Z,101970.33
2019-04-28T18:46:30.883Z,101974.45
2019-04-28T18:49:00.164Z,101971.02
2019-04-28T18:51:41.152Z,101973.77
2019-04-28T18:54:08.113Z,101978.73
2019-04-28T18:56:37.392Z,101983.20
2019-04-28T18:59:11.781Z,101987.64
2019-04-28T19:01:46.622Z,101996.13
2019-04-28T19:04:19.527Z,101995.28
2019-04-28T19:07:04.023Z,101995.78
2019-04-28T19:09:43.030Z,101999.37
2019-04-28T19:12:46.697Z,102001.31
2019-04-28T19:15:33.956Z,101997.88
2019-04-28T19:18:08.215Z,101995.75
2019-04-28T19:20:37.406Z,102002.51
2019-04-28T19:23:09.574Z,102001.25
2019-04-28T19:25:39.360Z,102004.83
2019-04-28T19:28:08.592Z,102001.80
2019-04-28T19:31:02.468Z,102000.97
2019-04-28T19:33:45.001Z,102005.88
2019-04-28T19:36:21.350Z,102006.77
2019-04-28T19:39:22.076Z,102009.05
2019-04-28T19:42:20.394Z,102011.34
2019-04-28T19:48:35.080Z,102019.42
2019-04-28T19:51:03.533Z,102018.14
2019-04-28T19:53:49.365Z,102012.42
2019-04-28T19:56:36.156Z,102018.67
2019-04-28T19:59:25.599Z,102014.70
2019-04-28T20:02:12.480Z,102019.13
2019-04-28T20:05:07.678Z,102024.89
2019-04-28T20:07:40.932Z,102025.38
2019-04-28T20:10:24.024Z,102023.70
2019-04-28T20:12:56.644Z,102028.12
2019-04-28T20:15:46.051Z,102034.78
2019-04-28T20:18:22.835Z,102037.05
2019-04-28T20:20:59.462Z,102038.40
2019-04-28T20:23:33.050Z,102041.09
2019-04-28T20:26:14.472Z,102051.75
2019-04-28T20:29:07.197Z,102058.02
2019-04-28T20:32:04.853Z,102053.25
2019-04-28T20:34:41.191Z,102059.91
2019-04-28T20:37:34.124Z,102062.16
2019-04-28T20:40:11.601Z,102059.95
2019-04-28T20:43:02.940Z,102064.44
2019-04-28T20:45:34.083Z,102063.55
2019-04-28T20:48:06.746Z,102064.88
2019-04-28T20:50:43.849Z,102063.55
2019-04-28T20:53:34.754Z,102066.22
2019-04-28T20:56:09.772Z,102068.89
2019-04-28T20:58:48.837Z,102071.55
2019-04-28T21:01:22.533Z,102077.79
2019-04-28T21:04:02.226Z,102076.03
2019-04-28T21:06:43.854Z,102079.61
2019-04-28T21:09:20.432Z,102088.02
2019-04-28T21:11:58.079Z,102006.56
2019-04-28T21:14:35.021Z,102092.44
2019-04-28T21:17:19.938Z,102090.27
2019-04-28T21:19:54.811Z,101960.36
2019-04-28T21:25:20.621Z,102099.21
2019-04-28T21:27:52.199Z,102100.10
2019-04-28T21:30:40.935Z,102107.63
2019-04-28T21:33:16.685Z,102109.88
2019-04-28T21:35:53.138Z,102105.00
2019-04-28T21:38:35.344Z,102105.01
2019-04-28T21:41:05.050Z,102109.47
2019-04-28T21:43:59.947Z,102112.13
2019-04-28T21:47:04.228Z,102111.68
2019-04-28T21:49:48.455Z,102023.14
2019-04-28T21:52:27.692Z,102106.41
2019-04-28T21:55:10.254Z,102066.76
2019-04-28T21:57:40.875Z,102109.06
2019-04-28T22:00:21.015Z,102109.09
2019-04-28T22:03:08.041Z,102109.98
2019-04-28T22:05:32.624Z,102105.16
2019-04-28T22:08:12.444Z,102117.13
2019-04-28T22:10:55.230Z,102115.80
2019-04-28T22:13:33.242Z,102118.00
2019-04-28T22:16:08.194Z,102112.70
2019-04-28T22:18:46.799Z,102117.13
2019-04-28T22:21:19.103Z,102113.14
2019-04-28T22:24:12.087Z,102118.04
2019-04-28T22:26:51.221Z,102114.50
2019-04-28T22:29:24.753Z,102122.90
2019-04-28T22:32:04.499Z,102121.57
2019-04-28T22:34:45.419Z,102118.51
2019-04-28T22:37:21.309Z,102114.53
2019-04-28T22:39:55.536Z,102123.81
2019-04-28T22:42:39.668Z,102121.59
2019-04-28T22:45:48.465Z,102117.63
2019-04-28T22:48:22.074Z,102129.55
2019-04-28T22:50:57.400Z,102121.59
2019-04-28T22:53:38.415Z,102119.39
2019-04-28T22:56:26.449Z,102118.06
2019-04-28T22:58:59.838Z,102115.88
2019-04-28T23:01:39.016Z,102116.31
2019-04-28T23:04:12.184Z,102118.12
2019-04-28T23:06:41.276Z,102114.14
2019-04-28T23:09:13.867Z,102109.25
2019-04-28T23:11:43.233Z,102110.13
2019-04-28T23:14:12.378Z,102109.25
2019-04-28T23:16:41.865Z,102110.13
2019-04-28T23:19:14.070Z,102107.52
2019-04-28T23:21:52.534Z,102109.25
2019-04-28T23:24:22.180Z,102107.04
2019-04-28T23:26:51.178Z,102111.45
2019-04-28T23:29:20.177Z,102118.53
2019-04-28T23:31:49.170Z,102116.33
2019-04-28T23:34:18.305Z,102123.84
2019-04-28T23:36:47.528Z,102126.45
2019-04-28T23:39:16.418Z,102133.09
2019-04-28T23:42:00.418Z,102136.19
2019-04-28T23:44:29.450Z,102137.52
2019-04-28T23:46:59.233Z,102137.07
2019-04-28T23:49:29.879Z,102141.92
2019-04-28T23:52:17.283Z,102143.28
2019-04-28T23:54:48.417Z,102145.49
2019-04-28T23:57:17.581Z,102141.51
2019-04-28T23:59:47.157Z,102141.09
